Airfield :
LOGIN :

Register | Disclaimer

   EN    FR    IT 

 










Legend :    VFR   Marginal VFR   IFR   Intensive IFR   Very Intensive IFR
Visi :
Ceiling :
>= 8 km
>= 3000ft
5 to 8 km
1000 to 3000 ft
1500m to 5 km
500 to 1000 ft
800 to 1500m
200 to 500 ft
< 800m
< 200 ft
Symbols :   Thunderstorms  Fog  Heavy snow  Heavy precipitations  Wind > 20 kt
SIGMETs :     Misc.  Thunderstorms  Icing  Turbulence  Mountain Waves  Volcanic Ashes







- Airport Elevation : 28 ft
- IATA code : OLA


ENOL - Ørland

CURRENT METAR :
  • 270750Z 31012KT 9999 FEW007 SCT011 BKN014 10/08 Q1024 TEMPO BKN020

EXPIRED METARs :
  • 270720Z 32014KT 9999 FEW007 BKN012 10/08 Q1023 TEMPO BKN020
  • 270650Z 31014KT 9999 FEW007 SCT010 BKN015 10/08 Q1023 TEMPO BKN014
  • 270620Z 32016KT 9999 FEW007 SCT010 BKN019 10/09 Q1023 TEMPO BKN014
  • 270550Z 30015KT 9999 FEW007 SCT010 BKN015 10/09 Q1023 TEMPO BKN014
  • 270520Z 30013KT 4000 -DZRA BR FEW006 SCT008 BKN012 10/09 Q1023 TEMPO 9999 -RA BKN020

TAF TAF ENOL
Valid from the 27 at 06:00 until the 28 at 06:00 UTC


2706/2806 30012KT 9999 -RA FEW012 BKN020
TEMPO 2706/2724 BKN014
BECMG 2800/2803 24012KT -RA BKN012
TEMPO 2800/2806 3000 RADZ BKN008
No reported NOTAMs for that airfield.



MET'MAP, your aeronautical weather chart ! - Copyright ORBIFLY December 2007 - Disclaimer

ORBIFLY MET'MAP TEAM :

Programming & Development : Alexandra Zaïnal
Concept & Development : Baudouin d'Aumeries
Co-Development & Prog : Marc-Olivier Méhu
Technical & hardware support : Manuel Goepfert

Contact : metmap@orbifly.com




SOURCES & CREDITS :

   NOAA